Time;durP1;ratioP1;P1;durP2;ratioP2;P2;SDS_P1;SDS_P2;PMS_P1;PMS_P2;Temp;Humidity;BMP_temperature;BMP_pressure;BME280_temperature;BME280_humidity;BME280_pressure;Samples;Min_cycle;Max_cycle;Signal;HPM_P1;HPM_P2
2022/03/11 00:01:42;;;;;;;17.70;16.40;;;5.00;3.50;;;;;;4933538;28;20231;-72
2022/03/11 00:04:08;;;;;;;16.43;15.53;;;4.90;3.60;;;;;;4934607;29;20191;-74
2022/03/11 00:06:35;;;;;;;17.23;15.97;;;5.10;3.20;;;;;;4934234;29;20458;-74
2022/03/11 00:09:01;;;;;;;17.30;15.85;;;5.10;3.10;;;;;;4933381;29;20673;-73
2022/03/11 00:11:26;;;;;;;15.73;14.82;;;5.00;3.40;;;;;;4934722;29;20190;-73
2022/03/11 00:13:52;;;;;;;18.20;16.90;;;4.90;3.60;;;;;;4934598;29;20187;-73
2022/03/11 00:16:19;;;;;;;17.10;16.10;;;4.80;4.00;;;;;;4933702;29;20189;-73
2022/03/11 00:18:45;;;;;;;18.52;17.17;;;4.80;4.50;;;;;;4934606;29;20651;-74
2022/03/11 00:21:12;;;;;;;17.17;16.10;;;4.90;4.30;;;;;;4934631;29;20258;-74
2022/03/11 00:23:42;;;;;;;17.08;15.90;;;4.80;4.40;;;;;;4934562;29;20422;-73
2022/03/11 00:26:08;;;;;;;18.05;16.65;;;4.70;4.80;;;;;;4934477;29;20171;-74
2022/03/11 00:28:34;;;;;;;18.23;16.92;;;4.70;4.90;;;;;;4934362;29;20175;-73
2022/03/11 00:31:00;;;;;;;16.60;15.67;;;4.70;5.20;;;;;;4934482;29;20547;-73
2022/03/11 00:33:26;;;;;;;16.73;15.80;;;4.60;5.30;;;;;;4934514;29;20209;-74
2022/03/11 00:35:51;;;;;;;17.67;16.03;;;4.60;5.60;;;;;;4934751;29;20266;-74
2022/03/11 00:38:17;;;;;;;20.10;18.50;;;4.70;5.80;;;;;;4933850;29;20217;-75
2022/03/11 00:40:42;;;;;;;16.53;15.73;;;4.70;5.90;;;;;;4934256;29;20230;-73
2022/03/11 00:43:08;;;;;;;18.97;17.50;;;4.70;6.00;;;;;;4934319;29;20456;-73
2022/03/11 00:45:34;;;;;;;19.10;17.70;;;4.70;6.20;;;;;;4934360;29;20190;-73
2022/03/11 00:47:59;;;;;;;20.00;18.00;;;4.70;6.00;;;;;;4933987;29;20290;-73
2022/03/11 00:50:25;;;;;;;18.30;17.00;;;4.60;6.20;;;;;;4933061;29;20187;-74
2022/03/11 00:52:51;;;;;;;19.67;18.23;;;4.60;6.40;;;;;;4931862;29;20249;-74
2022/03/11 00:55:17;;;;;;;17.00;15.90;;;4.50;6.50;;;;;;4931052;29;20234;-73
2022/03/11 00:57:42;;;;;;;20.10;18.47;;;4.40;6.90;;;;;;4937355;29;20649;-74
2022/03/11 01:00:09;;;;;;;17.57;16.27;;;4.30;6.80;;;;;;4927274;29;20789;-73
2022/03/11 01:02:39;;;;;;;18.67;17.48;;;4.30;6.80;;;;;;4918624;29;20582;-73
2022/03/11 01:05:05;;;;;;;17.90;16.40;;;4.30;6.80;;;;;;4918652;29;20191;-73
2022/03/11 01:07:31;;;;;;;18.50;17.40;;;4.20;6.70;;;;;;4916844;29;20222;-73
2022/03/11 01:09:57;;;;;;;19.48;18.02;;;4.20;6.80;;;;;;4921661;29;20191;-74
2022/03/11 01:12:23;;;;;;;18.53;17.33;;;4.00;7.30;;;;;;4918305;29;20730;-73
2022/03/11 01:14:48;;;;;;;17.87;16.57;;;3.80;8.10;;;;;;4926411;29;20211;-74
2022/03/11 01:17:14;;;;;;;19.20;17.97;;;3.70;8.60;;;;;;4937027;29;20534;-74
2022/03/11 01:19:40;;;;;;;18.30;16.90;;;3.70;8.00;;;;;;4937390;29;20258;-74
2022/03/11 01:22:05;;;;;;;19.17;17.47;;;3.60;8.90;;;;;;4937316;29;20202;-73
2022/03/11 01:24:32;;;;;;;19.23;17.80;;;3.60;8.60;;;;;;4937432;29;20272;-73
2022/03/11 01:26:57;;;;;;;17.95;16.65;;;3.50;9.00;;;;;;4936774;29;20203;-75
2022/03/11 01:29:24;;;;;;;17.77;16.50;;;3.40;9.80;;;;;;4937297;29;20241;-73
2022/03/11 01:31:51;;;;;;;17.73;16.40;;;3.40;9.00;;;;;;4937050;29;20971;-73
2022/03/11 01:34:17;;;;;;;17.23;16.13;;;3.40;9.00;;;;;;4951810;28;20268;-75
2022/03/11 01:36:42;;;;;;;18.02;16.63;;;3.40;9.10;;;;;;4936606;29;20206;-74
2022/03/11 01:39:08;;;;;;;19.83;18.23;;;3.40;9.40;;;;;;4937046;29;20261;-74
2022/03/11 01:41:34;;;;;;;18.40;16.30;;;3.40;9.20;;;;;;4936986;29;20178;-74
2022/03/11 01:44:03;;;;;;;18.57;17.10;;;3.40;9.50;;;;;;4936977;29;20443;-74
2022/03/11 01:46:29;;;;;;;17.23;15.98;;;3.30;9.80;;;;;;4936654;29;20285;-74
2022/03/11 01:48:56;;;;;;;20.13;18.42;;;3.20;9.90;;;;;;4936809;29;20190;-74
2022/03/11 01:51:23;;;;;;;17.73;16.52;;;3.20;10.50;;;;;;4936814;29;20182;-74
2022/03/11 01:53:49;;;;;;;19.20;17.60;;;3.30;10.50;;;;;;4936908;29;20170;-75
2022/03/11 01:56:14;;;;;;;19.98;18.30;;;3.20;10.50;;;;;;4936614;29;20202;-73
2022/03/11 01:58:40;;;;;;;19.40;17.90;;;3.20;10.50;;;;;;4936542;29;20182;-74
2022/03/11 02:01:06;;;;;;;20.57;18.90;;;3.10;10.70;;;;;;4951473;28;20183;-73
2022/03/11 02:03:32;;;;;;;20.47;18.63;;;3.10;11.10;;;;;;4935966;29;20936;-72
2022/03/11 02:06:02;;;;;;;19.00;17.23;;;3.10;11.40;;;;;;4951548;29;20191;-72
2022/03/11 02:08:28;;;;;;;19.27;17.88;;;3.10;11.20;;;;;;4936248;29;20428;-73
2022/03/11 02:10:55;;;;;;;22.00;19.90;;;3.10;11.50;;;;;;4951082;29;20183;-72
2022/03/11 02:13:21;;;;;;;20.00;18.25;;;3.10;11.60;;;;;;4936368;29;20202;-73
2022/03/11 02:15:46;;;;;;;21.07;18.93;;;3.10;11.80;;;;;;4935096;29;20234;-73
2022/03/11 02:18:12;;;;;;;22.73;20.80;;;3.10;11.90;;;;;;4935906;29;20984;-73
2022/03/11 02:20:37;;;;;;;20.17;18.27;;;3.10;11.80;;;;;;4950942;29;20520;-72
2022/03/11 02:23:05;;;;;;;19.70;18.30;;;3.10;11.80;;;;;;4936309;29;20657;-74
2022/03/11 02:25:30;;;;;;;24.45;19.55;;;3.10;11.80;;;;;;4936305;29;20229;-72
2022/03/11 02:27:56;;;;;;;20.67;19.20;;;2.90;12.30;;;;;;4935785;29;20535;-74
2022/03/11 02:30:22;;;;;;;21.37;19.63;;;3.00;12.20;;;;;;4950917;29;20627;-73
2022/03/11 02:32:48;;;;;;;20.83;19.23;;;3.00;12.30;;;;;;4935999;29;20206;-74
2022/03/11 02:35:15;;;;;;;23.50;21.42;;;2.90;12.40;;;;;;4936196;29;20418;-74
2022/03/11 02:37:41;;;;;;;20.63;19.13;;;2.90;12.60;;;;;;4951145;29;20203;-74
2022/03/11 02:40:08;;;;;;;19.87;18.20;;;2.90;12.70;;;;;;4936060;29;20181;-73
2022/03/11 02:42:34;;;;;;;21.55;19.60;;;2.90;12.50;;;;;;4935927;29;20186;-73
2022/03/11 02:45:00;;;;;;;22.13;20.13;;;2.80;12.90;;;;;;4936890;29;20183;-73
2022/03/11 02:47:27;;;;;;;21.73;19.92;;;2.80;12.50;;;;;;4939724;29;20207;-73
2022/03/11 02:49:53;;;;;;;23.27;20.85;;;2.80;12.60;;;;;;4940391;29;20195;-73
2022/03/11 02:52:19;;;;;;;23.80;21.23;;;2.90;13.50;;;;;;4940432;29;20570;-73
2022/03/11 02:54:45;;;;;;;22.40;20.30;;;2.80;13.20;;;;;;4936495;29;20171;-73
2022/03/11 02:57:10;;;;;;;22.60;20.30;;;2.80;12.90;;;;;;4935421;29;20486;-73
2022/03/11 02:59:36;;;;;;;21.17;19.30;;;2.80;12.80;;;;;;4950399;29;20552;-75
2022/03/11 03:02:02;;;;;;;22.03;19.83;;;2.80;13.10;;;;;;4935678;29;20186;-75
2022/03/11 03:04:27;;;;;;;22.20;20.27;;;2.80;13.10;;;;;;4935550;29;20201;-73
2022/03/11 03:06:55;;;;;;;23.30;21.13;;;2.70;13.30;;;;;;4935309;29;20249;-73
2022/03/11 03:09:20;;;;;;;21.30;19.60;;;2.70;13.30;;;;;;4934211;29;20241;-74
2022/03/11 03:11:46;;;;;;;24.27;22.20;;;2.70;13.40;;;;;;4935440;29;20202;-73
2022/03/11 03:14:11;;;;;;;22.13;20.33;;;2.70;13.30;;;;;;4935420;29;20392;-73
2022/03/11 03:16:37;;;;;;;24.03;22.07;;;2.60;13.70;;;;;;4934676;29;20198;-73
2022/03/11 03:19:02;;;;;;;25.33;20.53;;;2.60;13.80;;;;;;4949880;28;20190;-73
2022/03/11 03:21:28;;;;;;;23.97;21.67;;;2.60;13.60;;;;;;4935180;29;20229;-73
2022/03/11 03:23:54;;;;;;;21.63;19.90;;;2.60;13.80;;;;;;4935171;29;20174;-73
2022/03/11 03:26:19;;;;;;;23.73;21.43;;;2.60;13.60;;;;;;4935160;29;20170;-72
2022/03/11 03:28:45;;;;;;;24.07;21.80;;;2.60;13.60;;;;;;4949699;29;20179;-72
2022/03/11 03:31:10;;;;;;;24.40;22.10;;;2.60;13.70;;;;;;4935022;29;20190;-74
2022/03/11 03:33:36;;;;;;;21.57;19.67;;;2.60;13.60;;;;;;4933987;28;20600;-74
2022/03/11 03:36:02;;;;;;;24.05;21.77;;;2.50;13.60;;;;;;4934980;29;20339;-73
2022/03/11 03:38:28;;;;;;;22.60;20.60;;;2.50;13.80;;;;;;4934665;29;20253;-73
2022/03/11 03:40:53;;;;;;;23.67;21.27;;;2.50;13.70;;;;;;4934908;29;20193;-72
2022/03/11 03:43:19;;;;;;;22.63;20.53;;;2.50;13.60;;;;;;4934966;29;20255;-74
2022/03/11 03:45:45;;;;;;;23.63;21.17;;;2.50;13.70;;;;;;4934854;29;20182;-74
2022/03/11 03:48:10;;;;;;;22.87;21.07;;;2.40;13.90;;;;;;4934502;29;20202;-73
2022/03/11 03:50:36;;;;;;;24.03;22.20;;;2.40;13.80;;;;;;4934871;29;20196;-73
2022/03/11 03:53:01;;;;;;;28.33;21.57;;;2.40;14.00;;;;;;4934663;29;20546;-75
2022/03/11 03:55:27;;;;;;;23.07;21.17;;;2.30;14.10;;;;;;4934923;29;20178;-73
2022/03/11 03:57:53;;;;;;;23.23;21.20;;;2.30;14.00;;;;;;4934507;29;20195;-74
2022/03/11 04:00:18;;;;;;;24.80;22.40;;;2.30;13.80;;;;;;4934739;29;20983;-73
2022/03/11 04:02:49;;;;;;;24.53;22.27;;;2.30;13.70;;;;;;4933413;29;20696;-73
2022/03/11 04:05:16;;;;;;;23.33;21.30;;;2.40;13.60;;;;;;4934726;29;20185;-73
2022/03/11 04:07:45;;;;;;;22.08;19.75;;;2.30;13.40;;;;;;4934178;29;20225;-73
2022/03/11 04:10:13;;;;;;;24.40;22.40;;;2.30;13.40;;;;;;4934609;29;20205;-74
2022/03/11 04:12:39;;;;;;;21.88;20.13;;;2.30;13.50;;;;;;4934770;29;20573;-73
2022/03/11 04:15:06;;;;;;;24.98;22.45;;;2.20;13.50;;;;;;4934543;29;20175;-71
2022/03/11 04:17:31;;;;;;;23.60;21.60;;;2.20;13.60;;;;;;4948840;29;20217;-71
2022/03/11 04:19:59;;;;;;;26.17;23.60;;;2.20;13.50;;;;;;4934549;29;20660;-72
2022/03/11 04:22:25;;;;;;;24.63;21.25;;;2.10;13.90;;;;;;4934545;29;20548;-74
2022/03/11 04:24:51;;;;;;;22.92;20.73;;;2.20;13.80;;;;;;4934460;29;20173;-72
2022/03/11 04:27:16;;;;;;;24.40;22.10;;;2.10;13.70;;;;;;4935743;29;20201;-73
2022/03/11 04:29:42;;;;;;;24.83;22.50;;;2.10;14.10;;;;;;4938284;29;20185;-74
2022/03/11 04:32:08;;;;;;;23.67;21.50;;;2.10;14.10;;;;;;4953252;28;20211;-74
2022/03/11 04:34:34;;;;;;;23.13;21.20;;;2.10;13.70;;;;;;4938165;29;20186;-74
2022/03/11 04:36:59;;;;;;;25.70;23.00;;;2.00;13.80;;;;;;4952535;28;20205;-73
2022/03/11 04:39:26;;;;;;;24.40;22.10;;;2.00;13.70;;;;;;4938149;29;20541;-75
2022/03/11 04:41:53;;;;;;;22.92;20.92;;;2.00;13.80;;;;;;4938627;29;20558;-75
2022/03/11 04:44:19;;;;;;;23.88;21.83;;;2.00;13.70;;;;;;4936865;29;20186;-74
2022/03/11 04:46:46;;;;;;;23.15;20.80;;;1.90;13.40;;;;;;4952366;28;20291;-75
2022/03/11 04:49:11;;;;;;;25.60;22.95;;;2.00;13.40;;;;;;4938105;29;20200;-75
2022/03/11 04:51:38;;;;;;;24.73;22.63;;;1.90;13.30;;;;;;4937897;29;20182;-75
2022/03/11 04:54:04;;;;;;;25.00;22.63;;;1.90;13.30;;;;;;4939780;29;20737;-76
2022/03/11 04:56:32;;;;;;;25.08;20.58;;;1.90;13.10;;;;;;4952235;29;20805;-71
2022/03/11 04:58:58;;;;;;;24.45;22.13;;;1.90;13.20;;;;;;4952638;29;20209;-70
2022/03/11 05:01:23;;;;;;;23.57;21.40;;;1.90;13.20;;;;;;4938151;29;20216;-70
2022/03/11 05:03:49;;;;;;;22.40;20.43;;;1.80;13.20;;;;;;4937680;29;20804;-70
2022/03/11 05:06:15;;;;;;;23.60;21.40;;;1.80;13.30;;;;;;4937592;29;20178;-70
2022/03/11 05:08:40;;;;;;;24.03;21.87;;;1.70;13.10;;;;;;4938609;29;20276;-71
2022/03/11 05:11:06;;;;;;;23.20;21.10;;;1.80;13.20;;;;;;4936436;29;20448;-71
2022/03/11 05:13:32;;;;;;;21.67;19.30;;;1.70;13.20;;;;;;4937531;29;20261;-72
2022/03/11 05:15:57;;;;;;;25.83;23.23;;;1.60;13.30;;;;;;4937659;29;20448;-72
2022/03/11 05:18:23;;;;;;;22.67;20.50;;;1.60;13.30;;;;;;4937342;29;20225;-72
2022/03/11 05:20:49;;;;;;;21.73;19.93;;;1.60;13.50;;;;;;4952333;29;20186;-72
2022/03/11 05:23:15;;;;;;;22.40;20.50;;;1.50;13.40;;;;;;4936308;29;20648;-72
2022/03/11 05:25:40;;;;;;;23.47;21.10;;;1.50;13.70;;;;;;4937457;29;20580;-72
2022/03/11 05:28:06;;;;;;;22.97;20.50;;;1.50;13.70;;;;;;4937218;29;20438;-72
2022/03/11 05:30:32;;;;;;;23.17;20.77;;;1.50;13.10;;;;;;4952126;28;20188;-72
2022/03/11 05:32:58;;;;;;;22.00;19.90;;;1.60;12.80;;;;;;4937269;29;20215;-72
2022/03/11 05:35:23;;;;;;;21.50;19.77;;;1.50;12.90;;;;;;4937459;29;20914;-72
2022/03/11 05:37:49;;;;;;;23.40;20.90;;;1.50;12.80;;;;;;4936816;29;20207;-71
2022/03/11 05:40:14;;;;;;;20.30;18.70;;;1.50;13.30;;;;;;4936508;29;20557;-72
2022/03/11 05:42:40;;;;;;;24.80;20.97;;;1.50;12.30;;;;;;4937193;29;20662;-72
2022/03/11 05:45:07;;;;;;;20.45;19.05;;;1.50;12.10;;;;;;4937146;29;20179;-72
2022/03/11 05:47:33;;;;;;;21.00;19.55;;;1.50;12.20;;;;;;4936710;29;20283;-72
2022/03/11 05:49:59;;;;;;;20.70;18.87;;;1.50;12.00;;;;;;4937012;29;20219;-71
2022/03/11 05:52:25;;;;;;;20.93;19.03;;;1.60;11.80;;;;;;4936670;29;20872;-73
2022/03/11 05:54:51;;;;;;;20.88;19.20;;;1.50;11.40;;;;;;4936793;29;20202;-71
2022/03/11 05:57:17;;;;;;;20.98;18.95;;;1.60;11.60;;;;;;4936377;29;20232;-71
2022/03/11 05:59:43;;;;;;;20.43;18.63;;;1.60;11.40;;;;;;4936849;29;20604;-72
2022/03/11 06:02:08;;;;;;;20.87;19.27;;;1.60;11.30;;;;;;4936707;29;20425;-72
2022/03/11 06:04:34;;;;;;;22.47;20.37;;;1.60;11.00;;;;;;4936490;29;20425;-69
2022/03/11 06:06:59;;;;;;;21.83;19.60;;;1.60;11.20;;;;;;4936226;29;20268;-71
2022/03/11 06:09:25;;;;;;;22.20;20.27;;;1.70;11.20;;;;;;4936380;29;20209;-72
2022/03/11 06:11:53;;;;;;;21.50;19.33;;;1.70;11.30;;;;;;4936464;29;20201;-71
2022/03/11 06:14:18;;;;;;;22.73;20.70;;;1.70;11.00;;;;;;4936439;29;20224;-70
2022/03/11 06:16:44;;;;;;;20.40;18.77;;;1.60;11.20;;;;;;4936074;29;20193;-70
2022/03/11 06:19:10;;;;;;;20.97;19.17;;;1.70;11.10;;;;;;4936240;29;20178;-70
2022/03/11 06:21:36;;;;;;;19.77;18.20;;;1.80;10.70;;;;;;4936473;29;20175;-72
2022/03/11 06:24:02;;;;;;;20.87;19.23;;;1.80;10.70;;;;;;4936466;29;20205;-71
2022/03/11 06:26:27;;;;;;;21.33;19.20;;;1.90;10.30;;;;;;4936077;29;20281;-72
2022/03/11 06:28:53;;;;;;;21.43;19.33;;;2.00;10.10;;;;;;4936458;29;20178;-72
2022/03/11 06:31:19;;;;;;;20.13;18.65;;;2.10;9.70;;;;;;4936041;29;20178;-73
2022/03/11 06:33:44;;;;;;;20.73;18.93;;;2.30;9.40;;;;;;4934866;29;20237;-72
2022/03/11 06:36:10;;;;;;;21.33;19.57;;;2.40;9.50;;;;;;4935892;29;20528;-72
2022/03/11 06:38:35;;;;;;;22.90;20.70;;;2.60;8.80;;;;;;4935948;29;20179;-72
2022/03/11 06:41:01;;;;;;;18.87;17.57;;;2.90;8.50;;;;;;4936045;29;20174;-72
2022/03/11 06:43:26;;;;;;;20.73;19.03;;;3.20;7.70;;;;;;4936128;29;20270;-73
2022/03/11 06:45:52;;;;;;;20.00;18.60;;;3.60;8.20;;;;;;4935908;29;20183;-72
2022/03/11 06:48:21;;;;;;;19.07;17.67;;;4.20;6.80;;;;;;4935739;29;20203;-73
2022/03/11 06:50:48;;;;;;;21.60;19.52;;;4.50;6.10;;;;;;4935825;29;20182;-72
2022/03/11 06:53:15;;;;;;;19.33;17.85;;;4.80;5.10;;;;;;4935608;29;20250;-72
2022/03/11 06:55:41;;;;;;;20.30;18.40;;;5.10;4.50;;;;;;4935956;29;20179;-73
2022/03/11 06:58:07;;;;;;;19.57;18.30;;;5.10;4.70;;;;;;4935435;29;20254;-72
2022/03/11 07:00:32;;;;;;;18.07;16.87;;;5.10;4.40;;;;;;4935885;29;20219;-71
2022/03/11 07:02:58;;;;;;;19.57;17.63;;;5.00;4.00;;;;;;4935334;28;20613;-72
2022/03/11 07:05:24;;;;;;;19.90;18.23;;;4.90;3.90;;;;;;4935812;29;20246;-71
2022/03/11 07:07:50;;;;;;;20.65;18.90;;;4.90;4.00;;;;;;4935008;29;20679;-72
2022/03/11 07:10:16;;;;;;;19.57;18.07;;;4.80;4.20;;;;;;4923085;29;20218;-72
2022/03/11 07:12:43;;;;;;;19.08;17.67;;;4.80;4.50;;;;;;4932777;29;20216;-73
2022/03/11 07:15:09;;;;;;;19.13;17.67;;;4.70;4.20;;;;;;4929814;29;20175;-73
2022/03/11 07:17:35;;;;;;;18.08;16.58;;;4.60;4.30;;;;;;4916168;29;20321;-75
2022/03/11 07:20:03;;;;;;;20.85;19.35;;;4.60;4.40;;;;;;4915078;29;20184;-71
2022/03/11 07:22:29;;;;;;;17.98;16.75;;;4.60;4.70;;;;;;4921267;29;20742;-71
2022/03/11 07:24:55;;;;;;;19.90;17.73;;;4.60;4.90;;;;;;4935311;29;20189;-71
2022/03/11 07:27:22;;;;;;;19.93;18.50;;;4.60;4.60;;;;;;4935150;29;20492;-72
2022/03/11 07:29:48;;;;;;;20.02;18.58;;;4.60;5.20;;;;;;4935319;29;20438;-72
2022/03/11 07:32:16;;;;;;;18.53;17.33;;;4.70;4.90;;;;;;4935006;29;20203;-71
2022/03/11 07:34:42;;;;;;;17.90;16.73;;;4.80;5.00;;;;;;4935340;29;20246;-71
2022/03/11 07:37:11;;;;;;;19.30;18.10;;;4.70;4.20;;;;;;4934991;29;20202;-71
2022/03/11 07:39:40;;;;;;;20.48;19.08;;;4.80;4.10;;;;;;4935253;29;20190;-71
2022/03/11 07:42:06;;;;;;;19.83;18.10;;;4.90;5.00;;;;;;4933833;29;20281;-71
2022/03/11 07:44:33;;;;;;;19.03;17.63;;;4.90;3.60;;;;;;4935107;29;20262;-70
2022/03/11 07:46:58;;;;;;;18.92;17.30;;;5.00;4.00;;;;;;4934956;29;20446;-72
2022/03/11 07:49:24;;;;;;;19.27;17.87;;;5.00;3.70;;;;;;4934941;29;20555;-71
2022/03/11 07:51:50;;;;;;;19.27;18.07;;;5.00;3.70;;;;;;4934748;29;20191;-71
2022/03/11 07:54:16;;;;;;;18.47;17.17;;;5.10;3.70;;;;;;4935230;29;20419;-72
2022/03/11 07:56:41;;;;;;;18.20;17.00;;;5.20;4.00;;;;;;4935126;29;20447;-72
2022/03/11 07:59:07;;;;;;;18.33;17.10;;;5.10;3.80;;;;;;4935074;29;20688;-70
2022/03/11 08:01:33;;;;;;;19.20;17.80;;;5.30;4.00;;;;;;4934662;29;20183;-73
2022/03/11 08:03:58;;;;;;;18.02;16.95;;;5.40;4.40;;;;;;4934828;29;20191;-71
2022/03/11 08:06:24;;;;;;;21.00;19.50;;;5.60;3.10;;;;;;4933526;29;20219;-71
2022/03/11 08:08:50;;;;;;;17.88;16.50;;;5.70;3.20;;;;;;4932789;29;20298;-71
2022/03/11 08:11:16;;;;;;;20.97;19.10;;;5.80;3.30;;;;;;4930295;29;20228;-70
2022/03/11 08:13:42;;;;;;;17.20;15.90;;;5.80;3.30;;;;;;4930262;29;20492;-72
2022/03/11 08:16:08;;;;;;;17.77;16.73;;;6.00;3.40;;;;;;4931100;29;20421;-71
2022/03/11 08:18:35;;;;;;;17.13;16.07;;;6.00;2.90;;;;;;4928492;29;20311;-72
2022/03/11 08:21:03;;;;;;;17.73;16.33;;;6.10;2.70;;;;;;4930152;29;20428;-72
2022/03/11 08:23:29;;;;;;;19.73;18.20;;;6.20;3.40;;;;;;4930586;29;20193;-70
2022/03/11 08:25:54;;;;;;;21.00;19.40;;;6.30;2.40;;;;;;4922399;29;20968;-72
2022/03/11 08:28:22;;;;;;;20.83;19.03;;;6.50;4.10;;;;;;4923469;29;20513;-70
2022/03/11 08:30:48;;;;;;;20.50;18.70;;;6.10;3.20;;;;;;4929766;29;20291;-70
2022/03/11 08:33:20;;;;;;;20.73;19.00;;;6.00;4.30;;;;;;4929342;29;21285;-70
2022/03/11 08:35:46;;;;;;;22.27;20.33;;;5.80;3.50;;;;;;4909841;29;20185;-69
2022/03/11 08:38:12;;;;;;;19.70;17.60;;;5.50;4.70;;;;;;4910546;29;20199;-72
2022/03/11 08:40:37;;;;;;;21.73;19.93;;;5.20;5.20;;;;;;4922724;29;20200;-70
2022/03/11 08:43:03;;;;;;;27.97;23.20;;;5.30;4.90;;;;;;4929268;29;20195;-70
2022/03/11 08:45:29;;;;;;;21.67;19.43;;;5.60;5.10;;;;;;4929238;29;20267;-71
2022/03/11 08:47:54;;;;;;;22.77;20.83;;;5.70;5.10;;;;;;4922047;29;20267;-70
2022/03/11 08:50:21;;;;;;;21.23;19.23;;;5.60;5.20;;;;;;4929380;29;20197;-71
2022/03/11 08:52:47;;;;;;;22.50;20.73;;;5.80;4.90;;;;;;4930134;29;20571;-70
2022/03/11 08:55:13;;;;;;;33.17;21.70;;;5.40;5.60;;;;;;4929366;29;20244;-70
2022/03/11 08:57:39;;;;;;;19.92;18.13;;;5.30;5.60;;;;;;4926305;29;20493;-71
2022/03/11 09:00:08;;;;;;;24.13;19.90;;;5.50;5.20;;;;;;4919765;29;20218;-71
2022/03/11 09:02:37;;;;;;;20.15;18.33;;;5.60;5.40;;;;;;4928719;29;20450;-72
2022/03/11 09:05:04;;;;;;;20.67;19.27;;;5.70;5.40;;;;;;4930258;29;20228;-71
2022/03/11 09:07:29;;;;;;;21.85;19.55;;;5.90;4.90;;;;;;4931885;29;20768;-72
2022/03/11 09:09:55;;;;;;;21.03;19.27;;;6.20;4.90;;;;;;4933662;29;20204;-72
2022/03/11 09:12:21;;;;;;;20.27;18.67;;;6.20;5.00;;;;;;4932743;29;20725;-73
2022/03/11 09:14:46;;;;;;;21.60;19.90;;;6.10;4.70;;;;;;4936312;29;20424;-74
2022/03/11 09:17:12;;;;;;;21.90;19.93;;;6.00;4.90;;;;;;4937266;29;20729;-73
2022/03/11 09:19:37;;;;;;;21.77;20.07;;;6.20;5.30;;;;;;4937886;29;20189;-71
2022/03/11 09:22:03;;;;;;;21.97;20.03;;;6.30;4.60;;;;;;4937803;29;20187;-74
2022/03/11 09:24:29;;;;;;;20.30;18.90;;;6.10;4.80;;;;;;4937384;29;20189;-72
2022/03/11 09:26:55;;;;;;;20.73;19.03;;;6.40;5.10;;;;;;4937491;29;20206;-72
2022/03/11 09:29:23;;;;;;;20.83;19.10;;;6.60;5.00;;;;;;4936065;29;20189;-72
2022/03/11 09:31:48;;;;;;;25.55;22.90;;;6.60;4.50;;;;;;4936681;29;20443;-72
2022/03/11 09:34:14;;;;;;;21.20;19.53;;;6.70;4.30;;;;;;4936928;29;20647;-72
2022/03/11 09:36:39;;;;;;;21.13;19.50;;;6.90;4.40;;;;;;4936716;29;20683;-71
2022/03/11 09:39:05;;;;;;;21.40;19.80;;;7.10;4.10;;;;;;4936930;29;20175;-76
2022/03/11 09:41:31;;;;;;;22.53;20.73;;;7.00;4.00;;;;;;4935706;29;20215;-72
2022/03/11 09:43:57;;;;;;;22.13;20.43;;;7.00;4.10;;;;;;4937421;29;20189;-73
2022/03/11 09:46:25;;;;;;;19.90;18.47;;;7.00;4.00;;;;;;4936460;29;20441;-73
2022/03/11 09:48:52;;;;;;;20.70;18.87;;;7.20;3.90;;;;;;4937062;29;20189;-74
2022/03/11 09:51:19;;;;;;;21.60;19.97;;;7.20;3.60;;;;;;4937001;29;20433;-73
2022/03/11 09:53:44;;;;;;;20.33;18.83;;;7.30;2.90;;;;;;4936780;29;20539;-73
2022/03/11 09:56:10;;;;;;;19.13;17.57;;;7.50;3.00;;;;;;4936728;29;20430;-71
2022/03/11 09:58:35;;;;;;;20.20;18.13;;;7.70;3.00;;;;;;4936593;29;20225;-73
2022/03/11 10:01:02;;;;;;;22.67;20.50;;;7.80;1.70;;;;;;4936926;29;20192;-71
2022/03/11 10:03:30;;;;;;;20.10;18.80;;;7.70;1.80;;;;;;4936828;29;20183;-72
2022/03/11 10:05:56;;;;;;;21.27;19.47;;;7.90;1.90;;;;;;4936440;29;20434;-75
2022/03/11 10:08:39;;;;;;;19.97;18.63;;;7.90;1.90;;;;;;4935869;29;20458;-71
2022/03/11 10:11:26;;;;;;;20.17;18.77;;;8.10;2.00;;;;;;4936007;29;20207;-71
2022/03/11 10:13:53;;;;;;;19.50;18.07;;;8.10;1.90;;;;;;4935705;29;20472;-72
2022/03/11 10:16:25;;;;;;;19.53;18.03;;;8.30;1.70;;;;;;4936440;29;20478;-71
2022/03/11 10:19:02;;;;;;;20.37;18.87;;;8.30;1.90;;;;;;4936007;29;20422;-71
2022/03/11 10:21:45;;;;;;;19.90;18.27;;;8.50;1.30;;;;;;4949603;29;20426;-71
2022/03/11 10:24:13;;;;;;;20.83;19.20;;;8.60;1.00;;;;;;4935281;29;20478;-72
2022/03/11 10:26:44;;;;;;;21.23;19.43;;;8.80;1.00;;;;;;4930492;29;20459;-70
2022/03/11 10:29:17;;;;;;;22.50;20.77;;;9.00;1.00;;;;;;4943593;29;20482;-71
2022/03/11 10:31:45;;;;;;;21.33;19.70;;;9.10;1.00;;;;;;4931762;29;20428;-71
2022/03/11 10:34:30;;;;;;;22.00;20.60;;;9.00;1.00;;;;;;4932098;29;20466;-74
2022/03/11 10:37:07;;;;;;;20.70;19.17;;;9.10;1.00;;;;;;4931611;29;20446;-74
2022/03/11 10:39:45;;;;;;;20.93;19.20;;;9.00;1.00;;;;;;4931632;29;20428;-74
2022/03/11 10:42:20;;;;;;;19.00;17.70;;;9.00;1.00;;;;;;4931937;29;20444;-73
2022/03/11 10:44:55;;;;;;;18.73;17.53;;;9.20;1.00;;;;;;4931997;29;21006;-75
2022/03/11 10:47:27;;;;;;;20.03;18.47;;;9.30;1.00;;;;;;4931250;29;20439;-73
2022/03/11 10:49:56;;;;;;;20.70;19.20;;;9.30;1.00;;;;;;4915361;29;20797;-72
2022/03/11 10:52:37;;;;;;;20.70;18.97;;;9.40;1.00;;;;;;4911312;29;20484;-72
2022/03/11 10:55:33;;;;;;;19.23;17.90;;;9.60;1.00;;;;;;4925550;29;20449;-72
2022/03/11 10:58:01;;;;;;;20.70;19.00;;;9.50;1.00;;;;;;4926378;29;20802;-71
2022/03/11 11:00:41;;;;;;;20.13;18.60;;;9.60;1.00;;;;;;4933448;29;20798;-70
2022/03/11 11:03:09;;;;;;;20.57;19.03;;;9.70;1.00;;;;;;4934135;29;20465;-71
2022/03/11 11:05:36;;;;;;;20.30;19.03;;;9.80;1.00;;;;;;4934277;29;20427;-71
2022/03/11 11:08:03;;;;;;;20.23;18.83;;;9.90;1.00;;;;;;4968046;23;20591;-71
2022/03/11 11:10:32;;;;;;;20.37;18.83;;;10.10;1.00;;;;;;4954231;28;20422;-70
2022/03/11 11:12:59;;;;;;;20.13;18.67;;;10.10;1.00;;;;;;4954533;28;20471;-70
2022/03/11 11:15:25;;;;;;;21.90;19.97;;;10.10;1.00;;;;;;4954251;28;20427;-71
2022/03/11 11:17:51;;;;;;;19.63;18.13;;;10.20;1.00;;;;;;4953680;28;20447;-71
2022/03/11 11:20:49;;;;;;;20.37;18.97;;;10.10;1.00;;;;;;4954345;28;20189;-70
2022/03/11 11:23:16;;;;;;;21.70;19.40;;;10.10;1.00;;;;;;4956180;28;20498;-71
2022/03/11 11:25:43;;;;;;;19.67;18.57;;;10.20;1.00;;;;;;4954331;28;20417;-71
2022/03/11 11:28:14;;;;;;;19.40;17.90;;;10.20;1.00;;;;;;4953440;28;20542;-71
2022/03/11 11:30:40;;;;;;;19.03;17.63;;;10.30;1.00;;;;;;4952861;28;20470;-70
2022/03/11 11:33:06;;;;;;;18.80;17.60;;;10.40;1.00;;;;;;4953899;28;20467;-70
2022/03/11 11:35:38;;;;;;;18.17;16.97;;;10.40;1.00;;;;;;4953937;28;20463;-70
2022/03/11 11:38:07;;;;;;;20.27;18.60;;;10.50;1.00;;;;;;4953302;28;20793;-70
2022/03/11 11:40:44;;;;;;;18.30;17.10;;;10.50;1.00;;;;;;4955574;28;20423;-70
2022/03/11 11:43:34;;;;;;;19.57;18.00;;;10.80;1.00;;;;;;4955953;28;20427;-71
2022/03/11 11:46:13;;;;;;;18.90;17.13;;;10.90;1.00;;;;;;4954421;28;20791;-70
2022/03/11 11:48:42;;;;;;;19.17;17.77;;;10.90;1.00;;;;;;4953773;28;20437;-72
2022/03/11 11:51:10;;;;;;;20.07;18.77;;;10.90;1.00;;;;;;4952863;28;20416;-71
2022/03/11 11:53:40;;;;;;;19.63;18.57;;;11.00;1.00;;;;;;4953798;28;21006;-70
2022/03/11 11:56:28;;;;;;;19.67;18.27;;;11.30;1.00;;;;;;4949501;28;20837;-71
2022/03/11 11:58:58;;;;;;;19.93;18.53;;;11.40;1.00;;;;;;4965497;28;20424;-72
2022/03/11 12:01:42;;;;;;;19.50;18.30;;;11.40;1.00;;;;;;4954241;28;20414;-71
2022/03/11 12:04:31;;;;;;;20.40;19.13;;;11.40;1.00;;;;;;4953587;28;20413;-72
2022/03/11 12:07:04;;;;;;;19.73;18.33;;;11.60;1.00;;;;;;4953391;28;20448;-69
2022/03/11 12:09:51;;;;;;;21.23;18.70;;;11.50;1.00;;;;;;4953647;28;20413;-70
2022/03/11 12:12:22;;;;;;;20.77;19.47;;;11.50;1.00;;;;;;4951515;28;20475;-69
2022/03/11 12:15:00;;;;;;;18.60;17.60;;;11.70;1.00;;;;;;4953427;28;20511;-69
2022/03/11 12:17:37;;;;;;;20.50;18.90;;;11.80;1.00;;;;;;4953551;28;20746;-69
2022/03/11 12:20:24;;;;;;;18.23;17.10;;;11.90;1.00;;;;;;4954488;28;20401;-68
2022/03/11 12:23:30;;;;;;;20.77;19.17;;;12.00;1.00;;;;;;4956519;28;20836;-70
2022/03/11 12:25:58;;;;;;;19.80;18.43;;;12.20;1.00;;;;;;4954071;28;20413;-69
2022/03/11 12:28:30;;;;;;;21.57;19.97;;;12.30;1.00;;;;;;4953592;28;20453;-68
2022/03/11 12:31:00;;;;;;;20.30;18.77;;;12.20;1.00;;;;;;4955193;28;20445;-70
2022/03/11 12:33:33;;;;;;;21.70;20.10;;;12.30;1.00;;;;;;4953996;28;20565;-68
2022/03/11 12:36:00;;;;;;;20.67;19.20;;;12.40;1.00;;;;;;4953863;28;20405;-69
2022/03/11 12:38:34;;;;;;;21.10;19.63;;;12.50;1.00;;;;;;4953713;28;20461;-68
2022/03/11 12:41:27;;;;;;;19.77;18.47;;;12.40;1.00;;;;;;4954510;28;20418;-69
2022/03/11 12:43:57;;;;;;;20.50;19.20;;;12.50;1.00;;;;;;4936978;29;20943;-69
2022/03/11 12:46:22;;;;;;;21.70;19.90;;;12.50;1.00;;;;;;4936155;29;20429;-70